sensor_id;sensor_type;location;lat;lon;timestamp;P1;durP1;ratioP1;P2;durP2;ratioP2
71343;SDS011;59146;43.850;25.948;2023-02-15T00:01:45;46.40;;;25.83;;
71343;SDS011;59146;43.850;25.948;2023-02-15T00:04:15;48.85;;;26.27;;
71343;SDS011;59146;43.850;25.948;2023-02-15T00:06:42;49.45;;;25.98;;
71343;SDS011;59146;43.850;25.948;2023-02-15T00:09:08;41.95;;;24.48;;
71343;SDS011;59146;43.850;25.948;2023-02-15T00:11:35;47.10;;;25.13;;
71343;SDS011;59146;43.850;25.948;2023-02-15T00:14:14;42.95;;;24.65;;
71343;SDS011;59146;43.850;25.948;2023-02-15T00:16:42;40.15;;;23.08;;
71343;SDS011;59146;43.850;25.948;2023-02-15T00:19:09;43.30;;;22.63;;
71343;SDS011;59146;43.850;25.948;2023-02-15T00:21:37;40.65;;;22.63;;
71343;SDS011;59146;43.850;25.948;2023-02-15T00:24:04;45.63;;;23.00;;
71343;SDS011;59146;43.850;25.948;2023-02-15T00:26:30;44.22;;;24.20;;
71343;SDS011;59146;43.850;25.948;2023-02-15T00:28:57;41.03;;;23.63;;
71343;SDS011;59146;43.850;25.948;2023-02-15T00:31:26;39.45;;;23.13;;
71343;SDS011;59146;43.850;25.948;2023-02-15T00:33:53;38.55;;;22.77;;
71343;SDS011;59146;43.850;25.948;2023-02-15T00:36:18;51.80;;;24.48;;
71343;SDS011;59146;43.850;25.948;2023-02-15T00:38:43;38.63;;;21.88;;
71343;SDS011;59146;43.850;25.948;2023-02-15T00:41:09;41.85;;;22.52;;
71343;SDS011;59146;43.850;25.948;2023-02-15T00:43:35;39.00;;;22.30;;
71343;SDS011;59146;43.850;25.948;2023-02-15T00:46:02;50.70;;;24.25;;
71343;SDS011;59146;43.850;25.948;2023-02-15T00:48:28;39.83;;;22.95;;
71343;SDS011;59146;43.850;25.948;2023-02-15T00:50:55;41.55;;;24.05;;
71343;SDS011;59146;43.850;25.948;2023-02-15T00:53:23;41.33;;;22.80;;
71343;SDS011;59146;43.850;25.948;2023-02-15T00:55:49;40.95;;;22.85;;
71343;SDS011;59146;43.850;25.948;2023-02-15T00:58:14;43.47;;;24.02;;
71343;SDS011;59146;43.850;25.948;2023-02-15T01:00:41;45.22;;;23.30;;
71343;SDS011;59146;43.850;25.948;2023-02-15T01:03:08;47.17;;;23.73;;
71343;SDS011;59146;43.850;25.948;2023-02-15T01:05:34;40.05;;;22.70;;
71343;SDS011;59146;43.850;25.948;2023-02-15T01:07:59;42.35;;;23.05;;
71343;SDS011;59146;43.850;25.948;2023-02-15T01:10:25;41.03;;;23.38;;
71343;SDS011;59146;43.850;25.948;2023-02-15T01:12:52;42.90;;;24.30;;
71343;SDS011;59146;43.850;25.948;2023-02-15T01:15:19;43.10;;;23.40;;
71343;SDS011;59146;43.850;25.948;2023-02-15T01:17:44;38.88;;;22.92;;
71343;SDS011;59146;43.850;25.948;2023-02-15T01:20:18;43.75;;;22.50;;
71343;SDS011;59146;43.850;25.948;2023-02-15T01:22:48;43.08;;;23.80;;
71343;SDS011;59146;43.850;25.948;2023-02-15T01:25:18;45.17;;;23.23;;
71343;SDS011;59146;43.850;25.948;2023-02-15T01:27:45;44.15;;;24.85;;
71343;SDS011;59146;43.850;25.948;2023-02-15T01:30:11;51.75;;;26.60;;
71343;SDS011;59146;43.850;25.948;2023-02-15T01:32:37;52.03;;;29.25;;
71343;SDS011;59146;43.850;25.948;2023-02-15T01:35:02;54.80;;;27.83;;
71343;SDS011;59146;43.850;25.948;2023-02-15T01:37:30;52.47;;;28.35;;
71343;SDS011;59146;43.850;25.948;2023-02-15T01:39:56;56.05;;;29.13;;
71343;SDS011;59146;43.850;25.948;2023-02-15T01:42:22;53.42;;;27.67;;
71343;SDS011;59146;43.850;25.948;2023-02-15T01:44:52;52.88;;;28.17;;
71343;SDS011;59146;43.850;25.948;2023-02-15T01:47:37;60.63;;;30.85;;
71343;SDS011;59146;43.850;25.948;2023-02-15T01:53:02;50.40;;;27.42;;
71343;SDS011;59146;43.850;25.948;2023-02-15T01:55:33;53.75;;;26.77;;
71343;SDS011;59146;43.850;25.948;2023-02-15T01:58:03;50.78;;;27.05;;
71343;SDS011;59146;43.850;25.948;2023-02-15T02:00:29;56.42;;;28.27;;
71343;SDS011;59146;43.850;25.948;2023-02-15T02:02:55;56.92;;;29.98;;
71343;SDS011;59146;43.850;25.948;2023-02-15T02:05:22;64.13;;;32.65;;
71343;SDS011;59146;43.850;25.948;2023-02-15T02:07:48;64.85;;;33.30;;
71343;SDS011;59146;43.850;25.948;2023-02-15T02:10:18;53.70;;;29.45;;
71343;SDS011;59146;43.850;25.948;2023-02-15T02:12:47;55.97;;;30.05;;
71343;SDS011;59146;43.850;25.948;2023-02-15T02:15:15;53.10;;;28.30;;
71343;SDS011;59146;43.850;25.948;2023-02-15T02:40:03;54.58;;;27.80;;
71343;SDS011;59146;43.850;25.948;2023-02-15T02:42:37;58.58;;;28.00;;
71343;SDS011;59146;43.850;25.948;2023-02-15T02:45:08;54.63;;;28.58;;
71343;SDS011;59146;43.850;25.948;2023-02-15T02:48:04;50.80;;;26.08;;
71343;SDS011;59146;43.850;25.948;2023-02-15T02:50:34;50.28;;;27.65;;
71343;SDS011;59146;43.850;25.948;2023-02-15T02:52:59;57.60;;;27.92;;
71343;SDS011;59146;43.850;25.948;2023-02-15T02:55:26;53.10;;;27.98;;
71343;SDS011;59146;43.850;25.948;2023-02-15T03:00:21;50.40;;;26.48;;
71343;SDS011;59146;43.850;25.948;2023-02-15T03:02:51;52.55;;;26.77;;
71343;SDS011;59146;43.850;25.948;2023-02-15T03:05:23;50.90;;;26.60;;
71343;SDS011;59146;43.850;25.948;2023-02-15T03:07:54;43.33;;;20.85;;
71343;SDS011;59146;43.850;25.948;2023-02-15T03:10:22;48.08;;;27.65;;
71343;SDS011;59146;43.850;25.948;2023-02-15T03:12:50;54.15;;;28.55;;
71343;SDS011;59146;43.850;25.948;2023-02-15T03:15:21;52.33;;;28.08;;
71343;SDS011;59146;43.850;25.948;2023-02-15T03:18:12;57.97;;;29.95;;
71343;SDS011;59146;43.850;25.948;2023-02-15T03:20:38;58.25;;;28.85;;
71343;SDS011;59146;43.850;25.948;2023-02-15T03:23:05;55.50;;;28.60;;
71343;SDS011;59146;43.850;25.948;2023-02-15T03:25:37;64.00;;;33.15;;
71343;SDS011;59146;43.850;25.948;2023-02-15T03:28:15;63.47;;;34.33;;
71343;SDS011;59146;43.850;25.948;2023-02-15T03:30:47;66.28;;;36.13;;
71343;SDS011;59146;43.850;25.948;2023-02-15T03:33:17;67.40;;;38.30;;
71343;SDS011;59146;43.850;25.948;2023-02-15T03:35:45;74.32;;;43.15;;
71343;SDS011;59146;43.850;25.948;2023-02-15T03:38:44;71.57;;;38.60;;
71343;SDS011;59146;43.850;25.948;2023-02-15T03:41:16;59.78;;;33.90;;
71343;SDS011;59146;43.850;25.948;2023-02-15T03:43:58;61.28;;;32.65;;
71343;SDS011;59146;43.850;25.948;2023-02-15T03:49:00;59.95;;;31.63;;
71343;SDS011;59146;43.850;25.948;2023-02-15T03:51:31;67.05;;;34.35;;
71343;SDS011;59146;43.850;25.948;2023-02-15T03:54:33;63.35;;;35.20;;
71343;SDS011;59146;43.850;25.948;2023-02-15T03:59:58;63.42;;;33.85;;
71343;SDS011;59146;43.850;25.948;2023-02-15T04:02:56;74.30;;;33.38;;
71343;SDS011;59146;43.850;25.948;2023-02-15T04:05:38;67.50;;;35.80;;
71343;SDS011;59146;43.850;25.948;2023-02-15T04:08:03;63.95;;;36.30;;
71343;SDS011;59146;43.850;25.948;2023-02-15T04:10:29;64.75;;;35.45;;
71343;SDS011;59146;43.850;25.948;2023-02-15T04:13:13;66.18;;;34.28;;
71343;SDS011;59146;43.850;25.948;2023-02-15T04:15:38;53.58;;;29.30;;
71343;SDS011;59146;43.850;25.948;2023-02-15T04:18:22;53.55;;;29.98;;
71343;SDS011;59146;43.850;25.948;2023-02-15T04:21:06;63.78;;;30.63;;
71343;SDS011;59146;43.850;25.948;2023-02-15T04:23:50;54.15;;;30.23;;
71343;SDS011;59146;43.850;25.948;2023-02-15T04:26:34;59.58;;;31.80;;
71343;SDS011;59146;43.850;25.948;2023-02-15T04:29:00;59.08;;;33.67;;
71343;SDS011;59146;43.850;25.948;2023-02-15T04:31:25;64.82;;;35.63;;
71343;SDS011;59146;43.850;25.948;2023-02-15T04:33:50;64.97;;;38.65;;
71343;SDS011;59146;43.850;25.948;2023-02-15T04:36:16;71.00;;;42.38;;
71343;SDS011;59146;43.850;25.948;2023-02-15T04:38:41;80.90;;;46.10;;
71343;SDS011;59146;43.850;25.948;2023-02-15T04:41:06;80.88;;;48.10;;
71343;SDS011;59146;43.850;25.948;2023-02-15T04:43:32;76.05;;;42.75;;
71343;SDS011;59146;43.850;25.948;2023-02-15T04:45:57;73.78;;;41.03;;
71343;SDS011;59146;43.850;25.948;2023-02-15T04:48:23;70.18;;;42.05;;
71343;SDS011;59146;43.850;25.948;2023-02-15T04:50:49;79.68;;;43.30;;
71343;SDS011;59146;43.850;25.948;2023-02-15T04:53:14;85.88;;;50.38;;
71343;SDS011;59146;43.850;25.948;2023-02-15T04:55:42;93.35;;;51.97;;
71343;SDS011;59146;43.850;25.948;2023-02-15T04:58:07;85.22;;;46.38;;
71343;SDS011;59146;43.850;25.948;2023-02-15T05:00:33;74.68;;;40.38;;
71343;SDS011;59146;43.850;25.948;2023-02-15T05:02:58;67.25;;;36.20;;
71343;SDS011;59146;43.850;25.948;2023-02-15T05:05:23;67.70;;;35.10;;
71343;SDS011;59146;43.850;25.948;2023-02-15T05:07:49;67.65;;;34.58;;
71343;SDS011;59146;43.850;25.948;2023-02-15T05:10:14;72.70;;;37.28;;
71343;SDS011;59146;43.850;25.948;2023-02-15T05:12:40;65.97;;;35.08;;
71343;SDS011;59146;43.850;25.948;2023-02-15T05:15:05;68.13;;;36.08;;
71343;SDS011;59146;43.850;25.948;2023-02-15T05:17:31;64.13;;;34.15;;
71343;SDS011;59146;43.850;25.948;2023-02-15T05:19:56;68.97;;;38.35;;
71343;SDS011;59146;43.850;25.948;2023-02-15T05:22:21;72.68;;;38.15;;
71343;SDS011;59146;43.850;25.948;2023-02-15T05:24:47;69.03;;;36.55;;
71343;SDS011;59146;43.850;25.948;2023-02-15T05:27:31;70.40;;;36.95;;
71343;SDS011;59146;43.850;25.948;2023-02-15T05:30:15;66.90;;;35.92;;
71343;SDS011;59146;43.850;25.948;2023-02-15T05:32:40;61.67;;;34.60;;
71343;SDS011;59146;43.850;25.948;2023-02-15T05:35:06;63.05;;;35.63;;
71343;SDS011;59146;43.850;25.948;2023-02-15T05:37:32;62.70;;;34.28;;
71343;SDS011;59146;43.850;25.948;2023-02-15T05:39:58;67.57;;;34.88;;
71343;SDS011;59146;43.850;25.948;2023-02-15T05:42:23;70.65;;;38.05;;
71343;SDS011;59146;43.850;25.948;2023-02-15T05:44:49;67.43;;;36.92;;
71343;SDS011;59146;43.850;25.948;2023-02-15T05:47:14;70.45;;;37.25;;
71343;SDS011;59146;43.850;25.948;2023-02-15T05:49:40;66.10;;;35.50;;
71343;SDS011;59146;43.850;25.948;2023-02-15T05:52:06;60.72;;;34.83;;
71343;SDS011;59146;43.850;25.948;2023-02-15T05:54:31;66.68;;;36.83;;
71343;SDS011;59146;43.850;25.948;2023-02-15T05:56:57;74.45;;;41.80;;
71343;SDS011;59146;43.850;25.948;2023-02-15T05:59:22;81.28;;;44.30;;
71343;SDS011;59146;43.850;25.948;2023-02-15T06:01:48;83.18;;;46.67;;
71343;SDS011;59146;43.850;25.948;2023-02-15T06:04:13;89.40;;;47.40;;
71343;SDS011;59146;43.850;25.948;2023-02-15T06:06:39;100.97;;;53.97;;
71343;SDS011;59146;43.850;25.948;2023-02-15T06:09:04;97.75;;;52.47;;
71343;SDS011;59146;43.850;25.948;2023-02-15T06:11:29;101.45;;;53.90;;
71343;SDS011;59146;43.850;25.948;2023-02-15T06:13:55;93.47;;;53.65;;
71343;SDS011;59146;43.850;25.948;2023-02-15T06:16:20;97.10;;;51.53;;
71343;SDS011;59146;43.850;25.948;2023-02-15T06:18:46;98.65;;;53.75;;
71343;SDS011;59146;43.850;25.948;2023-02-15T06:21:11;87.88;;;48.75;;
71343;SDS011;59146;43.850;25.948;2023-02-15T06:23:37;84.50;;;48.92;;
71343;SDS011;59146;43.850;25.948;2023-02-15T06:26:03;83.80;;;42.97;;
71343;SDS011;59146;43.850;25.948;2023-02-15T06:28:28;70.15;;;40.90;;
71343;SDS011;59146;43.850;25.948;2023-02-15T06:30:54;82.13;;;48.00;;
71343;SDS011;59146;43.850;25.948;2023-02-15T06:33:19;81.60;;;49.10;;
71343;SDS011;59146;43.850;25.948;2023-02-15T06:35:45;88.38;;;53.42;;
71343;SDS011;59146;43.850;25.948;2023-02-15T06:38:11;92.63;;;54.95;;
71343;SDS011;59146;43.850;25.948;2023-02-15T06:40:36;102.10;;;58.03;;
71343;SDS011;59146;43.850;25.948;2023-02-15T06:43:02;111.63;;;59.72;;
71343;SDS011;59146;43.850;25.948;2023-02-15T06:45:27;109.07;;;62.20;;
71343;SDS011;59146;43.850;25.948;2023-02-15T06:47:53;103.65;;;59.22;;
71343;SDS011;59146;43.850;25.948;2023-02-15T06:50:18;96.60;;;56.88;;
71343;SDS011;59146;43.850;25.948;2023-02-15T06:52:47;88.15;;;53.05;;
71343;SDS011;59146;43.850;25.948;2023-02-15T06:55:12;87.45;;;51.15;;
71343;SDS011;59146;43.850;25.948;2023-02-15T06:57:38;79.45;;;48.47;;
71343;SDS011;59146;43.850;25.948;2023-02-15T07:00:03;89.60;;;51.65;;
71343;SDS011;59146;43.850;25.948;2023-02-15T07:02:29;81.45;;;50.50;;
71343;SDS011;59146;43.850;25.948;2023-02-15T07:04:56;87.13;;;51.28;;
71343;SDS011;59146;43.850;25.948;2023-02-15T07:07:21;84.13;;;49.65;;
71343;SDS011;59146;43.850;25.948;2023-02-15T07:09:47;80.75;;;46.10;;
71343;SDS011;59146;43.850;25.948;2023-02-15T07:12:12;77.20;;;46.05;;
71343;SDS011;59146;43.850;25.948;2023-02-15T07:14:56;82.57;;;46.72;;
71343;SDS011;59146;43.850;25.948;2023-02-15T07:17:23;74.53;;;45.97;;
71343;SDS011;59146;43.850;25.948;2023-02-15T07:19:48;79.03;;;39.97;;
71343;SDS011;59146;43.850;25.948;2023-02-15T07:22:14;63.47;;;38.13;;
71343;SDS011;59146;43.850;25.948;2023-02-15T07:24:39;66.05;;;37.45;;
71343;SDS011;59146;43.850;25.948;2023-02-15T07:27:06;60.13;;;38.45;;
71343;SDS011;59146;43.850;25.948;2023-02-15T07:29:32;66.07;;;36.42;;
71343;SDS011;59146;43.850;25.948;2023-02-15T07:31:57;62.55;;;35.78;;
71343;SDS011;59146;43.850;25.948;2023-02-15T07:34:22;62.30;;;38.72;;
71343;SDS011;59146;43.850;25.948;2023-02-15T07:36:50;60.60;;;37.30;;
71343;SDS011;59146;43.850;25.948;2023-02-15T07:39:16;64.63;;;39.40;;
71343;SDS011;59146;43.850;25.948;2023-02-15T07:41:41;65.40;;;39.20;;
71343;SDS011;59146;43.850;25.948;2023-02-15T07:44:10;68.57;;;39.95;;
71343;SDS011;59146;43.850;25.948;2023-02-15T07:46:38;65.80;;;38.03;;
71343;SDS011;59146;43.850;25.948;2023-02-15T07:49:03;78.60;;;43.42;;
71343;SDS011;59146;43.850;25.948;2023-02-15T07:51:29;60.58;;;37.00;;
71343;SDS011;59146;43.850;25.948;2023-02-15T07:53:54;63.58;;;39.05;;
71343;SDS011;59146;43.850;25.948;2023-02-15T07:56:20;57.80;;;34.78;;
71343;SDS011;59146;43.850;25.948;2023-02-15T07:58:45;47.70;;;29.88;;
71343;SDS011;59146;43.850;25.948;2023-02-15T08:01:18;50.83;;;31.60;;
71343;SDS011;59146;43.850;25.948;2023-02-15T08:03:44;48.55;;;29.52;;
71343;SDS011;59146;43.850;25.948;2023-02-15T08:06:10;50.33;;;29.27;;
71343;SDS011;59146;43.850;25.948;2023-02-15T08:08:38;58.60;;;29.08;;
71343;SDS011;59146;43.850;25.948;2023-02-15T08:11:14;46.50;;;28.02;;
71343;SDS011;59146;43.850;25.948;2023-02-15T08:13:51;49.33;;;28.73;;
71343;SDS011;59146;43.850;25.948;2023-02-15T08:16:22;45.35;;;26.83;;
71343;SDS011;59146;43.850;25.948;2023-02-15T08:18:51;48.38;;;27.77;;
71343;SDS011;59146;43.850;25.948;2023-02-15T08:21:17;47.53;;;28.42;;
71343;SDS011;59146;43.850;25.948;2023-02-15T08:23:43;45.15;;;26.13;;
71343;SDS011;59146;43.850;25.948;2023-02-15T08:26:08;49.05;;;27.42;;
71343;SDS011;59146;43.850;25.948;2023-02-15T08:28:34;48.03;;;28.30;;
71343;SDS011;59146;43.850;25.948;2023-02-15T08:31:06;47.83;;;27.67;;
71343;SDS011;59146;43.850;25.948;2023-02-15T08:33:36;49.13;;;27.88;;
71343;SDS011;59146;43.850;25.948;2023-02-15T08:36:05;45.35;;;27.40;;
71343;SDS011;59146;43.850;25.948;2023-02-15T08:38:34;47.58;;;28.70;;
71343;SDS011;59146;43.850;25.948;2023-02-15T08:43:46;47.08;;;27.90;;
71343;SDS011;59146;43.850;25.948;2023-02-15T08:46:13;52.53;;;28.35;;
71343;SDS011;59146;43.850;25.948;2023-02-15T08:48:39;42.95;;;26.90;;
71343;SDS011;59146;43.850;25.948;2023-02-15T08:51:06;49.10;;;28.15;;
71343;SDS011;59146;43.850;25.948;2023-02-15T08:53:35;52.10;;;30.67;;
71343;SDS011;59146;43.850;25.948;2023-02-15T08:56:01;48.83;;;28.40;;
71343;SDS011;59146;43.850;25.948;2023-02-15T08:58:27;45.53;;;28.52;;
71343;SDS011;59146;43.850;25.948;2023-02-15T09:00:54;43.22;;;27.92;;
71343;SDS011;59146;43.850;25.948;2023-02-15T09:03:20;41.30;;;25.85;;
71343;SDS011;59146;43.850;25.948;2023-02-15T09:05:45;46.15;;;28.95;;
71343;SDS011;59146;43.850;25.948;2023-02-15T09:08:10;42.38;;;27.35;;
71343;SDS011;59146;43.850;25.948;2023-02-15T09:10:36;47.30;;;27.65;;
71343;SDS011;59146;43.850;25.948;2023-02-15T09:13:01;44.88;;;26.23;;
71343;SDS011;59146;43.850;25.948;2023-02-15T09:15:27;45.75;;;27.02;;
71343;SDS011;59146;43.850;25.948;2023-02-15T09:17:52;55.42;;;30.08;;
71343;SDS011;59146;43.850;25.948;2023-02-15T09:20:18;56.03;;;30.90;;
71343;SDS011;59146;43.850;25.948;2023-02-15T09:22:43;43.83;;;26.30;;
71343;SDS011;59146;43.850;25.948;2023-02-15T09:25:09;57.92;;;30.02;;
71343;SDS011;59146;43.850;25.948;2023-02-15T09:27:34;42.28;;;26.52;;
71343;SDS011;59146;43.850;25.948;2023-02-15T09:30:01;56.75;;;30.85;;
71343;SDS011;59146;43.850;25.948;2023-02-15T09:32:27;48.85;;;28.60;;
71343;SDS011;59146;43.850;25.948;2023-02-15T09:34:52;44.95;;;24.80;;
71343;SDS011;59146;43.850;25.948;2023-02-15T09:37:18;47.33;;;26.88;;
71343;SDS011;59146;43.850;25.948;2023-02-15T09:39:43;40.60;;;24.88;;
71343;SDS011;59146;43.850;25.948;2023-02-15T09:42:28;45.30;;;26.50;;
71343;SDS011;59146;43.850;25.948;2023-02-15T10:02:09;45.08;;;24.33;;
71343;SDS011;59146;43.850;25.948;2023-02-15T10:13:26;41.40;;;24.83;;
71343;SDS011;59146;43.850;25.948;2023-02-15T10:16:12;41.30;;;23.30;;
71343;SDS011;59146;43.850;25.948;2023-02-15T10:18:46;39.53;;;23.77;;
71343;SDS011;59146;43.850;25.948;2023-02-15T10:21:35;42.22;;;24.55;;
71343;SDS011;59146;43.850;25.948;2023-02-15T10:27:03;37.28;;;22.65;;
71343;SDS011;59146;43.850;25.948;2023-02-15T10:29:38;41.28;;;23.02;;
71343;SDS011;59146;43.850;25.948;2023-02-15T10:34:37;34.47;;;23.10;;
71343;SDS011;59146;43.850;25.948;2023-02-15T10:39:48;38.72;;;24.25;;
71343;SDS011;59146;43.850;25.948;2023-02-15T10:42:30;37.67;;;23.63;;
71343;SDS011;59146;43.850;25.948;2023-02-15T10:47:48;38.55;;;24.73;;
71343;SDS011;59146;43.850;25.948;2023-02-15T10:56:20;35.53;;;22.77;;
71343;SDS011;59146;43.850;25.948;2023-02-15T10:59:03;44.05;;;23.27;;
71343;SDS011;59146;43.850;25.948;2023-02-15T11:06:56;37.73;;;23.83;;
71343;SDS011;59146;43.850;25.948;2023-02-15T11:09:25;40.28;;;23.52;;
71343;SDS011;59146;43.850;25.948;2023-02-15T11:11:58;39.08;;;24.25;;
71343;SDS011;59146;43.850;25.948;2023-02-15T11:17:22;31.48;;;21.38;;
71343;SDS011;59146;43.850;25.948;2023-02-15T11:19:58;37.63;;;22.83;;
71343;SDS011;59146;43.850;25.948;2023-02-15T11:22:54;36.92;;;23.88;;
71343;SDS011;59146;43.850;25.948;2023-02-15T11:25:22;36.25;;;21.20;;
71343;SDS011;59146;43.850;25.948;2023-02-15T11:27:50;37.65;;;21.85;;
71343;SDS011;59146;43.850;25.948;2023-02-15T11:30:28;32.78;;;21.45;;
71343;SDS011;59146;43.850;25.948;2023-02-15T11:33:17;43.63;;;21.92;;
71343;SDS011;59146;43.850;25.948;2023-02-15T11:35:54;34.45;;;21.92;;
71343;SDS011;59146;43.850;25.948;2023-02-15T11:38:52;41.58;;;23.13;;
71343;SDS011;59146;43.850;25.948;2023-02-15T11:41:24;37.30;;;22.67;;
71343;SDS011;59146;43.850;25.948;2023-02-15T11:43:58;37.40;;;22.30;;
71343;SDS011;59146;43.850;25.948;2023-02-15T11:46:26;34.97;;;22.70;;
71343;SDS011;59146;43.850;25.948;2023-02-15T11:48:51;38.78;;;22.45;;
71343;SDS011;59146;43.850;25.948;2023-02-15T11:51:17;47.97;;;24.23;;
71343;SDS011;59146;43.850;25.948;2023-02-15T11:53:45;37.97;;;21.88;;
71343;SDS011;59146;43.850;25.948;2023-02-15T11:56:16;34.30;;;21.00;;
71343;SDS011;59146;43.850;25.948;2023-02-15T12:01:36;37.13;;;21.77;;
71343;SDS011;59146;43.850;25.948;2023-02-15T12:04:06;35.47;;;18.92;;
71343;SDS011;59146;43.850;25.948;2023-02-15T12:06:57;30.98;;;20.55;;
71343;SDS011;59146;43.850;25.948;2023-02-15T12:09:48;31.35;;;19.65;;
71343;SDS011;59146;43.850;25.948;2023-02-15T12:14:50;32.08;;;22.10;;
71343;SDS011;59146;43.850;25.948;2023-02-15T12:17:17;29.55;;;19.67;;
71343;SDS011;59146;43.850;25.948;2023-02-15T12:19:45;42.25;;;21.08;;
71343;SDS011;59146;43.850;25.948;2023-02-15T12:22:22;31.48;;;19.42;;
71343;SDS011;59146;43.850;25.948;2023-02-15T12:24:51;33.60;;;20.38;;
71343;SDS011;59146;43.850;25.948;2023-02-15T12:27:29;42.58;;;18.13;;
71343;SDS011;59146;43.850;25.948;2023-02-15T12:30:07;27.80;;;16.95;;
71343;SDS011;59146;43.850;25.948;2023-02-15T12:32:51;30.80;;;18.02;;
71343;SDS011;59146;43.850;25.948;2023-02-15T12:35:29;33.15;;;17.73;;
71343;SDS011;59146;43.850;25.948;2023-02-15T12:38:39;30.38;;;16.70;;
71343;SDS011;59146;43.850;25.948;2023-02-15T12:40:58;27.73;;;17.58;;
71343;SDS011;59146;43.850;25.948;2023-02-15T12:43:27;27.15;;;16.60;;
71343;SDS011;59146;43.850;25.948;2023-02-15T12:46:39;25.95;;;16.65;;
71343;SDS011;59146;43.850;25.948;2023-02-15T12:49:04;37.13;;;17.67;;
71343;SDS011;59146;43.850;25.948;2023-02-15T12:54:50;31.15;;;16.58;;
71343;SDS011;59146;43.850;25.948;2023-02-15T12:57:24;24.92;;;15.80;;
71343;SDS011;59146;43.850;25.948;2023-02-15T13:00:02;23.60;;;15.68;;
71343;SDS011;59146;43.850;25.948;2023-02-15T13:02:34;21.25;;;14.77;;
71343;SDS011;59146;43.850;25.948;2023-02-15T13:10:23;25.15;;;15.73;;
71343;SDS011;59146;43.850;25.948;2023-02-15T13:12:53;27.00;;;16.05;;
71343;SDS011;59146;43.850;25.948;2023-02-15T13:17:51;28.98;;;16.17;;
71343;SDS011;59146;43.850;25.948;2023-02-15T13:20:20;25.15;;;15.63;;
71343;SDS011;59146;43.850;25.948;2023-02-15T13:22:50;29.17;;;15.68;;
71343;SDS011;59146;43.850;25.948;2023-02-15T13:25:28;25.63;;;16.23;;
71343;SDS011;59146;43.850;25.948;2023-02-15T13:28:00;27.85;;;16.75;;
71343;SDS011;59146;43.850;25.948;2023-02-15T13:30:38;30.58;;;15.38;;
71343;SDS011;59146;43.850;25.948;2023-02-15T13:35:52;24.15;;;15.90;;
71343;SDS011;59146;43.850;25.948;2023-02-15T13:41:11;29.20;;;17.70;;
71343;SDS011;59146;43.850;25.948;2023-02-15T13:43:47;31.98;;;16.58;;
71343;SDS011;59146;43.850;25.948;2023-02-15T13:52:08;24.60;;;16.10;;
71343;SDS011;59146;43.850;25.948;2023-02-15T13:57:38;26.42;;;16.52;;
71343;SDS011;59146;43.850;25.948;2023-02-15T14:03:04;27.02;;;16.80;;
71343;SDS011;59146;43.850;25.948;2023-02-15T14:11:27;23.70;;;15.95;;
71343;SDS011;59146;43.850;25.948;2023-02-15T14:16:58;32.63;;;16.58;;
71343;SDS011;59146;43.850;25.948;2023-02-15T14:19:59;25.52;;;14.45;;
71343;SDS011;59146;43.850;25.948;2023-02-15T14:22:35;28.65;;;16.55;;
71343;SDS011;59146;43.850;25.948;2023-02-15T14:30:40;21.83;;;13.50;;
71343;SDS011;59146;43.850;25.948;2023-02-15T14:35:54;26.30;;;15.23;;
71343;SDS011;59146;43.850;25.948;2023-02-15T14:38:25;26.17;;;15.35;;
71343;SDS011;59146;43.850;25.948;2023-02-15T14:41:13;29.73;;;15.73;;
71343;SDS011;59146;43.850;25.948;2023-02-15T14:46:38;26.10;;;15.02;;
71343;SDS011;59146;43.850;25.948;2023-02-15T14:49:27;31.60;;;15.57;;
71343;SDS011;59146;43.850;25.948;2023-02-15T14:52:07;34.03;;;17.15;;
71343;SDS011;59146;43.850;25.948;2023-02-15T15:01:58;36.70;;;16.58;;
71343;SDS011;59146;43.850;25.948;2023-02-15T15:04:33;31.10;;;15.82;;
71343;SDS011;59146;43.850;25.948;2023-02-15T15:09:42;31.50;;;18.00;;
71343;SDS011;59146;43.850;25.948;2023-02-15T15:14:51;40.40;;;18.77;;
71343;SDS011;59146;43.850;25.948;2023-02-15T15:22:42;25.30;;;15.32;;
71343;SDS011;59146;43.850;25.948;2023-02-15T15:25:12;34.22;;;16.02;;
71343;SDS011;59146;43.850;25.948;2023-02-15T15:31:14;30.80;;;15.88;;
71343;SDS011;59146;43.850;25.948;2023-02-15T15:42:35;25.38;;;14.68;;
71343;SDS011;59146;43.850;25.948;2023-02-15T15:51:05;33.78;;;16.80;;
71343;SDS011;59146;43.850;25.948;2023-02-15T15:53:38;36.97;;;16.52;;
71343;SDS011;59146;43.850;25.948;2023-02-15T15:56:08;37.53;;;18.15;;
71343;SDS011;59146;43.850;25.948;2023-02-15T15:58:41;39.78;;;19.48;;
71343;SDS011;59146;43.850;25.948;2023-02-15T16:01:24;52.20;;;24.60;;
71343;SDS011;59146;43.850;25.948;2023-02-15T16:03:52;53.38;;;26.75;;
71343;SDS011;59146;43.850;25.948;2023-02-15T16:06:30;69.93;;;39.35;;
71343;SDS011;59146;43.850;25.948;2023-02-15T16:09:13;45.33;;;23.75;;
71343;SDS011;59146;43.850;25.948;2023-02-15T16:11:45;48.97;;;25.90;;
71343;SDS011;59146;43.850;25.948;2023-02-15T16:17:05;57.00;;;34.30;;
71343;SDS011;59146;43.850;25.948;2023-02-15T16:19:34;34.92;;;22.15;;
71343;SDS011;59146;43.850;25.948;2023-02-15T16:22:07;44.03;;;21.48;;
71343;SDS011;59146;43.850;25.948;2023-02-15T16:30:19;33.50;;;19.45;;
71343;SDS011;59146;43.850;25.948;2023-02-15T16:32:45;32.83;;;19.10;;
71343;SDS011;59146;43.850;25.948;2023-02-15T16:35:15;39.00;;;20.98;;
71343;SDS011;59146;43.850;25.948;2023-02-15T16:37:42;34.75;;;20.58;;
71343;SDS011;59146;43.850;25.948;2023-02-15T16:40:25;35.10;;;20.52;;
71343;SDS011;59146;43.850;25.948;2023-02-15T16:42:55;35.75;;;20.05;;
71343;SDS011;59146;43.850;25.948;2023-02-15T16:45:25;38.17;;;21.60;;
71343;SDS011;59146;43.850;25.948;2023-02-15T16:47:53;34.38;;;20.85;;
71343;SDS011;59146;43.850;25.948;2023-02-15T16:50:23;37.55;;;21.15;;
71343;SDS011;59146;43.850;25.948;2023-02-15T16:52:54;36.70;;;21.17;;
71343;SDS011;59146;43.850;25.948;2023-02-15T16:55:22;33.08;;;19.08;;
71343;SDS011;59146;43.850;25.948;2023-02-15T16:57:49;37.50;;;20.83;;
71343;SDS011;59146;43.850;25.948;2023-02-15T17:00:19;40.30;;;24.38;;
71343;SDS011;59146;43.850;25.948;2023-02-15T17:02:57;41.08;;;24.95;;
71343;SDS011;59146;43.850;25.948;2023-02-15T17:05:40;62.55;;;31.75;;
71343;SDS011;59146;43.850;25.948;2023-02-15T17:08:27;66.75;;;38.65;;
71343;SDS011;59146;43.850;25.948;2023-02-15T17:17:14;102.72;;;65.13;;
71343;SDS011;59146;43.850;25.948;2023-02-15T17:19:43;87.95;;;57.78;;
71343;SDS011;59146;43.850;25.948;2023-02-15T17:22:17;55.58;;;36.17;;
71343;SDS011;59146;43.850;25.948;2023-02-15T17:24:58;51.40;;;27.17;;
71343;SDS011;59146;43.850;25.948;2023-02-15T17:27:25;39.08;;;21.48;;
71343;SDS011;59146;43.850;25.948;2023-02-15T17:29:57;38.20;;;21.55;;
71343;SDS011;59146;43.850;25.948;2023-02-15T17:32:28;45.92;;;21.88;;
71343;SDS011;59146;43.850;25.948;2023-02-15T17:40:07;40.05;;;22.67;;
71343;SDS011;59146;43.850;25.948;2023-02-15T17:42:39;46.88;;;22.98;;
71343;SDS011;59146;43.850;25.948;2023-02-15T17:45:04;40.05;;;22.30;;